Terminal Aerodrome Forecast
Issued by NWS

Home | Current Version | Previous Version | Text Only | Print | Product List | Glossary On
Versions: 1 2 3 4 5 6 7 8 9 10 11 12 13 14 15 16 17 18
342
FTUS43 KGRR 200709 AAB
TAFAZO
TAF AMD
KAZO 200709Z 2007/2106 18003KT 4SM BR SKC
      TEMPO 2007/2011 1/2SM FG OVC002
     FM201600 20008KT P6SM SCT040=

USA.gov is the U.S. government's official web portal to all federal, state and local government web resources and services.